Friday, August 28, 2015, 1:03 AM EDT

KPTB, Petersburg, Dinwiddie County Airport

Location: Petersburg, VA, United States Lat: 37.183
Local Time: 1:03 AM EDT ( 5:03 GMT) Lon: -77.517
Time Zone: US/Eastern Elev: 193 ft

Show me the last for .
Show Decoded

2015-08-28 00:35 METAR KPTB 280435Z AUTO 00000KT 4SM BR CLR 15/15 A3016 RMK AO2 T01520152 =
2015-08-28 00:15 METAR KPTB 280415Z AUTO 00000KT 5SM BR CLR 16/16 A3015 RMK AO2 T01570157 =
2015-08-27 23:55 METAR KPTB 280355Z AUTO 00000KT 5SM BR CLR 16/16 A3015 RMK AO2 T01610161 =
2015-08-27 23:35 METAR KPTB 280335Z AUTO 00000KT 7SM CLR 16/16 A3015 RMK AO2 T01600160 =
2015-08-27 23:15 METAR KPTB 280315Z AUTO 00000KT 5SM BR CLR 16/16 A3015 RMK AO2 T01610161 =
2015-08-27 22:55 METAR KPTB 280255Z AUTO 00000KT 7SM CLR 17/17 A3015 RMK AO2 T01650165 =
2015-08-27 22:35 METAR KPTB 280235Z AUTO 00000KT 7SM CLR 16/16 A3014 RMK AO2 T01630163 =
2015-08-27 22:15 METAR KPTB 280215Z AUTO 00000KT 7SM CLR 17/17 A3014 RMK AO2 T01700170 =
2015-08-27 21:55 METAR KPTB 280155Z AUTO 00000KT 10SM CLR 17/17 A3013 RMK AO2 T01710171 =
2015-08-27 21:35 METAR KPTB 280135Z AUTO 00000KT 10SM CLR 18/18 A3013 RMK AO2 T01760176 =
2015-08-27 21:15 METAR KPTB 280115Z AUTO 00000KT 10SM CLR 18/18 A3012 RMK AO2 T01800180 =
2015-08-27 20:55 METAR KPTB 280055Z AUTO 00000KT 10SM CLR 18/18 A3011 RMK AO2 T01820182 =
2015-08-27 20:35 METAR KPTB 280035Z AUTO 00000KT 10SM CLR 19/19 A3011 RMK AO2 T01850185 =
2015-08-27 20:15 METAR KPTB 280015Z AUTO 00000KT 10SM CLR 19/19 A3010 RMK AO2 T01900190 =
2015-08-27 19:55 METAR KPTB 272355Z AUTO 00000KT 10SM CLR 20/20 A3009 RMK AO2 T02010200 10286
                 20201 =
2015-08-27 19:35 METAR KPTB 272335Z AUTO 00000KT 10SM CLR 22/21 A3008 RMK AO2 T02150207 =
2015-08-27 19:15 METAR KPTB 272315Z AUTO 00000KT 10SM CLR 24/20 A3008 RMK AO2 T02370201 =
2015-08-27 18:55 METAR KPTB 272255Z AUTO 10003KT 10SM CLR 26/19 A3009 RMK AO2 T02570189 =
2015-08-27 18:35 METAR KPTB 272235Z AUTO 08004KT 10SM CLR 27/18 A3009 RMK AO2 T02660180 =
2015-08-27 18:15 METAR KPTB 272215Z AUTO 06006KT 10SM SCT065 27/18 A3009 RMK AO2 T02690176 =
2015-08-27 17:55 METAR KPTB 272155Z AUTO 11003KT 10SM BKN050 27/18 A3008 RMK AO2 T02730175 =
2015-08-27 17:35 METAR KPTB 272135Z AUTO 12004KT 10SM SCT055 26/19 A3008 RMK AO2 T02620188 =
2015-08-27 17:15 METAR KPTB 272115Z AUTO 10006KT 10SM SCT070 27/18 A3008 RMK AO2 T02730178 =
2015-08-27 16:55 METAR KPTB 272055Z AUTO 06003KT 10SM BKN070 28/17 A3008 RMK AO2 T02760174 =
2015-08-27 16:35 METAR KPTB 272035Z AUTO 00000KT 10SM SCT060 27/17 A3008 RMK AO2 T02720173 =
2015-08-27 16:15 METAR KPTB 272015Z AUTO 00000KT 10SM SCT050 BKN065 27/17 A3009 RMK AO2 T02690173
                 =
2015-08-27 15:55 METAR KPTB 271955Z AUTO 03005KT 10SM OVC050 28/17 A3008 RMK AO2 T02800173 =
2015-08-27 15:35 METAR KPTB 271935Z AUTO 01005KT 10SM SCT060 28/17 A3008 RMK AO2 T02820174 =
2015-08-27 15:15 METAR KPTB 271915Z AUTO 35005KT 10SM SCT050 28/17 A3009 RMK AO2 T02800170 =
2015-08-27 14:55 METAR KPTB 271855Z AUTO 02005KT 10SM SCT050 28/17 A3009 RMK AO2 T02820169 =
2015-08-27 14:35 METAR KPTB 271835Z AUTO 02004KT 10SM CLR 28/17 A3009 RMK AO2 T02780170 =
2015-08-27 14:15 METAR KPTB 271815Z AUTO 33007KT 10SM CLR 28/17 A3010 RMK AO2 T02760166 =
2015-08-27 13:55 METAR KPTB 271755Z AUTO 03005KT 10SM CLR 27/17 A3011 RMK AO2 T02740172 10275
                 20190 =
2015-08-27 13:35 METAR KPTB 271735Z AUTO 35004KT 10SM CLR 27/17 A3011 RMK AO2 T02730168 =
2015-08-27 13:15 METAR KPTB 271715Z AUTO 01006KT 10SM CLR 27/17 A3011 RMK AO2 T02720169 =
2015-08-27 12:55 METAR KPTB 271655Z AUTO 06008KT 10SM CLR 27/17 A3012 RMK AO2 T02660174 =
2015-08-27 12:35 METAR KPTB 271635Z AUTO 04007KT 10SM CLR 26/17 A3012 RMK AO2 T02620173 =
2015-08-27 12:15 METAR KPTB 271615Z AUTO 02007KT 10SM CLR 26/18 A3013 RMK AO2 T02600175 =
2015-08-27 11:55 METAR KPTB 271555Z AUTO 04008KT 10SM CLR 26/18 A3014 RMK AO2 T02570180 =
2015-08-27 11:35 METAR KPTB 271535Z AUTO 04006KT 10SM CLR 25/18 A3015 RMK AO2 T02460175 =
2015-08-27 11:15 METAR KPTB 271515Z AUTO 03007KT 10SM CLR 24/17 A3015 RMK AO2 T02440174 =
2015-08-27 10:55 METAR KPTB 271455Z AUTO 04007KT 10SM CLR 24/17 A3014 RMK AO2 T02410170 =
2015-08-27 10:35 METAR KPTB 271435Z AUTO 02010KT 10SM CLR 24/17 A3014 RMK AO2 T02380170 =
2015-08-27 10:15 METAR KPTB 271415Z AUTO 01007KT 10SM CLR 22/17 A3014 RMK AO2 T02240169 =
2015-08-27 09:55 METAR KPTB 271355Z AUTO 02009KT 10SM CLR 22/17 A3013 RMK AO2 T02220173 =
2015-08-27 09:35 METAR KPTB 271335Z AUTO 02007KT 10SM CLR 21/17 A3013 RMK AO2 T02120169 =
2015-08-27 09:15 METAR KPTB 271315Z AUTO 03006KT 10SM CLR 21/17 A3012 RMK AO2 T02050170 =
2015-08-27 08:55 METAR KPTB 271255Z AUTO 02006KT 10SM SCT080 20/17 A3012 RMK AO2 T02010169 =
2015-08-27 08:35 METAR KPTB 271235Z AUTO 02005KT 10SM CLR 20/17 A3012 RMK AO2 T01960168 =
2015-08-27 08:15 METAR KPTB 271215Z AUTO 03005KT 10SM CLR 19/17 A3011 RMK AO2 T01900166 =
2015-08-27 07:55 METAR KPTB 271155Z AUTO 02004KT 10SM SCT080 19/17 A3011 RMK AO2 T01900165 10210
                 20167 =
2015-08-27 07:35 METAR KPTB 271135Z AUTO 35003KT 7SM BKN080 19/17 A3011 RMK AO2 T01860166 =
2015-08-27 07:15 METAR KPTB 271115Z AUTO 00000KT 10SM SCT080 18/17 A3009 RMK AO2 T01750167 =
2015-08-27 06:55 METAR KPTB 271055Z AUTO 00000KT 10SM SCT080 SCT100 17/17 A3008 RMK AO2 T01710166
                 =
2015-08-27 06:35 METAR KPTB 271035Z AUTO 00000KT 10SM SCT080 BKN100 18/17 A3008 RMK AO2 T01750165
                 =
2015-08-27 06:15 METAR KPTB 271015Z AUTO 00000KT 10SM SCT080 OVC100 19/16 A3008 RMK AO2 T01910161
                 =
2015-08-27 05:55 METAR KPTB 270955Z AUTO 00000KT 10SM OVC080 20/16 A3007 RMK AO2 T01950163 =
2015-08-27 05:35 METAR KPTB 270935Z AUTO 35003KT 10SM OVC080 19/16 A3006 RMK AO2 T01940164 =
2015-08-27 05:15 METAR KPTB 270915Z AUTO 33003KT 10SM SCT080 OVC100 19/17 A3006 RMK AO2 T01930166
                 =
2015-08-27 04:15 METAR KPTB 270815Z AUTO 01004KT 10SM BKN075 OVC085 20/17 A3005 RMK AO2 T02000169
                 =
2015-08-27 03:55 METAR KPTB 270755Z AUTO 02004KT 10SM BKN075 BKN090 20/17 A3006 RMK AO2 T01980171
                 =
2015-08-27 03:35 METAR KPTB 270735Z AUTO 01004KT 10SM CLR 20/17 A3006 RMK AO2 T01970170 =
2015-08-27 03:15 METAR KPTB 270715Z AUTO 36003KT 10SM SCT075 20/17 A3006 RMK AO2 T01960172 =
2015-08-27 02:55 METAR KPTB 270655Z AUTO 02004KT 10SM BKN075 BKN085 BKN100 20/17 A3006 RMK AO2
                 T02020172 =
2015-08-27 02:35 METAR KPTB 270635Z AUTO 00000KT 10SM OVC075 21/18 A3006 RMK AO2 T02080177 =
2015-08-27 02:15 METAR KPTB 270615Z AUTO 01003KT 10SM OVC075 21/18 A3005 RMK AO2 T02100177 =
2015-08-27 01:55 METAR KPTB 270555Z AUTO 00000KT 10SM OVC075 21/18 A3006 RMK AO2 T02100180 10250
                 20192 =
2015-08-27 01:35 METAR KPTB 270535Z AUTO 02003KT 10SM OVC075 21/18 A3005 RMK AO2 T02100182 =
2015-08-27 01:15 METAR KPTB 270515Z AUTO 01003KT 10SM BKN075 21/18 A3005 RMK AO2 T02050181 =

Support USWX by starting your Amazon purchase here.